Time;durP1;ratioP1;P1;durP2;ratioP2;P2;SDS_P1;SDS_P2;PMS_P1;PMS_P2;Temp;Humidity;BMP_temperature;BMP_pressure;BME280_temperature;BME280_humidity;BME280_pressure;Samples;Min_cycle;Max_cycle;Signal;HPM_P1;HPM_P2
2022/07/23 00:04:22;;;;;;;17.50;9.50;;;;;;;21.55;69.41;100796.55;5129482;56;1141127;-67
2022/07/23 00:09:30;;;;;;;14.78;8.63;;;;;;;21.33;70.24;100798.29;5184046;56;1139102;-66
2022/07/23 00:14:35;;;;;;;15.63;9.45;;;;;;;21.12;70.73;100792.70;5180704;56;1139059;-70
2022/07/23 00:19:42;;;;;;;19.23;9.68;;;;;;;21.19;71.60;100797.23;5024763;58;1139042;-69
2022/07/23 00:24:48;;;;;;;13.38;8.98;;;;;;;21.40;71.84;100790.63;5049263;57;1138974;-67
2022/07/23 00:29:54;;;;;;;16.10;10.10;;;;;;;21.37;71.25;100795.06;4991538;58;1139040;-67
2022/07/23 00:35:00;;;;;;;10.03;8.58;;;;;;;21.41;71.81;100796.85;5004452;58;1139292;-68
2022/07/23 00:40:07;;;;;;;16.05;7.90;;;;;;;21.44;72.00;100798.34;5058529;57;1136952;-69
2022/07/23 00:45:13;;;;;;;12.70;8.80;;;;;;;21.36;71.57;100801.97;5038804;57;1141008;-67
2022/07/23 00:50:21;;;;;;;13.65;7.92;;;;;;;21.26;72.00;100794.13;4987418;58;1141434;-69
2022/07/23 00:55:27;;;;;;;18.80;11.13;;;;;;;21.38;72.59;100791.86;4982371;59;1141115;-69
2022/07/23 01:00:33;;;;;;;42.03;19.40;;;;;;;21.55;73.03;100788.47;4979700;58;1143381;-69
2022/07/23 01:05:39;;;;;;;44.33;19.77;;;;;;;21.67;72.41;100785.17;5000513;58;1143156;-67
2022/07/23 01:10:46;;;;;;;63.83;27.77;;;;;;;21.72;71.50;100785.94;5003526;58;1143214;-69
2022/07/23 01:15:52;;;;;;;39.13;18.75;;;;;;;21.65;71.22;100780.48;4982823;58;1143287;-69
2022/07/23 01:20:58;;;;;;;24.65;13.95;;;;;;;21.55;71.25;100784.44;5015777;58;1143298;-70
2022/07/23 01:26:04;;;;;;;64.75;25.08;;;;;;;21.43;71.80;100774.64;5201175;56;1143285;-67
2022/07/23 01:31:09;;;;;;;75.30;27.05;;;;;;;21.43;71.79;100772.45;5209275;56;1143321;-68
2022/07/23 01:36:15;;;;;;;63.73;24.85;;;;;;;21.40;71.44;100768.27;5212688;56;1143361;-69
2022/07/23 01:41:21;;;;;;;103.62;38.78;;;;;;;21.31;70.68;100768.87;5146159;56;1143224;-69
2022/07/23 01:46:27;;;;;;;139.47;47.05;;;;;;;21.24;71.33;100770.61;5193908;56;1145366;-67
2022/07/23 01:51:34;;;;;;;115.10;40.80;;;;;;;21.19;71.21;100769.47;5218584;56;1145314;-68
2022/07/23 01:56:41;;;;;;;106.55;36.77;;;;;;;21.08;71.23;100767.22;5181490;56;1145362;-68
2022/07/23 02:01:50;;;;;;;93.22;32.48;;;;;;;20.99;71.68;100755.67;5201143;56;1145376;-69
2022/07/23 02:06:57;;;;;;;81.75;28.27;;;;;;;20.88;71.43;100756.11;5211855;56;1143300;-68
2022/07/23 02:12:05;;;;;;;59.33;23.67;;;;;;;20.80;71.98;100749.43;5205300;56;1143210;-66
2022/07/23 02:17:11;;;;;;;43.45;18.15;;;;;;;20.84;72.60;100755.63;5168277;56;1143183;-70
2022/07/23 02:22:16;;;;;;;43.85;18.12;;;;;;;20.82;72.54;100751.44;5205288;56;1143304;-69
2022/07/23 02:27:23;;;;;;;31.07;15.90;;;;;;;20.81;72.67;100753.80;5176714;56;1143238;-69
2022/07/23 02:32:30;;;;;;;36.60;16.17;;;;;;;20.80;72.93;100756.98;5218806;56;1143286;-66
2022/07/23 02:37:36;;;;;;;57.43;22.58;;;;;;;20.77;72.81;100763.26;5213631;56;1143169;-67
2022/07/23 02:42:42;;;;;;;54.20;20.32;;;;;;;20.50;71.91;100765.42;5198521;56;1143288;-67
2022/07/23 02:47:48;;;;;;;59.33;22.22;;;;;;;20.26;72.01;100765.55;5206989;56;1143266;-67
2022/07/23 02:52:54;;;;;;;54.30;21.90;;;;;;;20.21;73.26;100750.45;5182040;56;1143278;-68
2022/07/23 02:58:02;;;;;;;71.82;22.67;;;;;;;20.33;74.41;100752.56;5182958;56;1143249;-68
2022/07/23 03:03:08;;;;;;;56.02;19.80;;;;;;;20.36;74.22;100742.84;5190523;56;1143552;-68
2022/07/23 03:08:14;;;;;;;34.13;15.23;;;;;;;20.33;73.75;100736.44;5210943;56;1143062;-67
2022/07/23 03:13:21;;;;;;;32.83;14.50;;;;;;;20.21;73.31;100731.66;5214865;56;1143316;-69
2022/07/23 03:18:27;;;;;;;41.98;14.93;;;;;;;20.22;74.04;100739.53;5199151;56;1144003;-67
2022/07/23 03:23:33;;;;;;;50.38;17.35;;;;;;;20.25;74.16;100740.53;5198998;56;1143198;-69
2022/07/23 03:28:39;;;;;;;43.15;16.85;;;;;;;20.33;74.59;100747.19;5213504;56;1143274;-67
2022/07/23 03:33:46;;;;;;;46.68;15.88;;;;;;;20.29;73.92;100735.15;5208894;56;1143504;-68
2022/07/23 03:38:52;;;;;;;36.00;15.26;;;;;;;20.06;74.10;100742.30;5211228;56;1143298;-67
2022/07/23 03:43:57;;;;;;;39.23;14.95;;;;;;;19.64;74.80;100760.92;5212794;56;1143222;-67
2022/07/23 03:49:04;;;;;;;26.82;12.78;;;;;;;19.40;75.71;100738.11;5183864;56;1143216;-67
2022/07/23 03:54:10;;;;;;;29.50;12.65;;;;;;;19.63;77.64;100740.95;5172938;56;1141171;-69
2022/07/23 03:59:16;;;;;;;20.12;11.20;;;;;;;19.84;77.57;100744.42;5198247;56;1141162;-67
2022/07/23 04:04:22;;;;;;;14.15;9.93;;;;;;;19.82;78.44;100733.02;5214071;56;1141178;-69
2022/07/23 04:09:30;;;;;;;11.18;8.58;;;;;;;19.89;79.08;100721.39;5043861;57;1139062;-68
2022/07/23 04:14:37;;;;;;;14.25;10.03;;;;;;;19.93;79.49;100744.71;5077981;57;1139126;-67
2022/07/23 04:19:43;;;;;;;17.20;10.82;;;;;;;20.02;79.91;100740.97;5218951;56;1140953;-68
2022/07/23 04:24:50;;;;;;;12.25;9.70;;;;;;;20.12;80.09;100739.44;5203595;56;1141408;-69
2022/07/23 04:29:57;;;;;;;18.37;9.55;;;;;;;20.14;79.59;100729.36;5167084;56;1139014;-66
2022/07/23 04:35:03;;;;;;;16.55;10.32;;;;;;;20.12;79.84;100735.41;5212351;56;1139052;-66
2022/07/23 04:40:11;;;;;;;18.73;11.12;;;;;;;20.01;80.12;100737.98;5183282;56;1141151;-67
2022/07/23 04:45:17;;;;;;;18.55;11.73;;;;;;;19.97;80.50;100723.23;5193504;56;1141366;-68
2022/07/23 04:50:23;;;;;;;36.95;11.43;;;;;;;19.86;81.30;100712.34;5204475;56;1141045;-67
2022/07/23 04:55:31;;;;;;;21.07;11.38;;;;;;;19.79;82.31;100710.55;5176330;56;1141129;-67
2022/07/23 05:00:37;;;;;;;22.30;11.30;;;;;;;19.74;82.79;100707.03;5194482;56;1141178;-69
2022/07/23 05:05:43;;;;;;;24.75;11.00;;;;;;;19.75;83.54;100706.02;5142157;56;1141083;-69
2022/07/23 05:10:51;;;;;;;19.42;10.93;;;;;;;19.80;84.32;100690.25;5139207;56;1141332;-70
2022/07/23 05:15:58;;;;;;;21.07;12.40;;;;;;;19.90;85.36;100694.05;5141926;56;1139014;-69
2022/07/23 05:21:05;;;;;;;27.00;13.75;;;;;;;20.02;85.11;100687.27;5142005;57;1139050;-68
2022/07/23 05:26:11;;;;;;;14.23;10.53;;;;;;;20.21;85.89;100680.12;5096546;56;1143207;-69
2022/07/23 05:31:18;;;;;;;21.83;10.00;;;;;;;20.53;86.45;100668.84;5142575;57;1143383;-70
2022/07/23 05:36:24;;;;;;;16.35;10.05;;;;;;;20.94;86.47;100660.75;5142757;56;1143176;-67
2022/07/23 05:41:31;;;;;;;11.00;9.65;;;;;;;21.29;85.85;100655.73;5138818;56;1143442;-68
2022/07/23 05:46:38;;;;;;;9.65;8.05;;;;;;;21.54;85.03;100652.26;5138568;56;1140977;-69
2022/07/23 05:51:46;;;;;;;13.20;8.38;;;;;;;21.81;84.71;100652.91;5142605;56;1139040;-70
2022/07/23 05:56:53;;;;;;;14.87;8.73;;;;;;;22.14;84.61;100644.41;5142433;57;1141172;-70
2022/07/23 06:01:58;;;;;;;8.75;7.97;;;;;;;22.42;83.62;100639.41;5152904;56;1141121;-70
2022/07/23 06:07:05;;;;;;;8.50;6.58;;;;;;;22.60;82.55;100640.81;5215489;56;1139065;-71
2022/07/23 06:12:11;;;;;;;9.28;7.15;;;;;;;22.79;82.50;100630.72;5212609;56;1138993;-67
2022/07/23 06:17:17;;;;;;;9.53;7.33;;;;;;;22.92;81.20;100651.05;5215198;56;1139023;-70
2022/07/23 06:22:23;;;;;;;15.15;7.30;;;;;;;23.09;81.01;100644.33;5219210;56;1139033;-69
2022/07/23 06:27:29;;;;;;;7.58;6.87;;;;;;;23.37;81.17;100628.12;5219140;56;1141144;-68
2022/07/23 06:32:34;;;;;;;7.28;6.60;;;;;;;23.68;79.57;100621.44;5217221;56;1139082;-71
2022/07/23 06:37:40;;;;;;;7.87;6.92;;;;;;;23.92;79.50;100607.38;5188622;56;1139241;-71
2022/07/23 06:42:46;;;;;;;7.60;6.90;;;;;;;24.13;77.98;100614.50;5176418;56;1139020;-68
2022/07/23 06:47:54;;;;;;;10.72;6.17;;;;;;;24.22;75.55;100617.83;5185151;56;1138467;-69
2022/07/23 06:52:59;;;;;;;10.53;6.80;;;;;;;24.34;75.12;100613.51;5167281;56;1141207;-70
2022/07/23 06:58:05;;;;;;;10.88;6.05;;;;;;;24.42;72.71;100605.21;5218662;56;1141029;-71
2022/07/23 07:03:12;;;;;;;4.67;4.08;;;;;;;24.44;72.78;100610.70;5218916;56;1141166;-70
2022/07/23 07:08:18;;;;;;;5.20;4.37;;;;;;;24.55;70.47;100620.09;5219042;56;1139052;-68
2022/07/23 07:13:23;;;;;;;9.05;5.62;;;;;;;24.49;69.26;100625.80;5219033;56;1139052;-69
2022/07/23 07:18:30;;;;;;;10.60;5.03;;;;;;;24.58;70.27;100622.38;5202472;56;1139061;-69
2022/07/23 07:23:35;;;;;;;5.30;4.80;;;;;;;24.78;69.79;100629.12;5214715;56;1141279;-70
2022/07/23 07:28:41;;;;;;;5.78;5.28;;;;;;;24.92;70.09;100625.36;5218194;56;1138973;-70
2022/07/23 07:33:47;;;;;;;7.33;5.12;;;;;;;25.10;68.07;100630.16;5218877;56;1139173;-68
2022/07/23 07:38:53;;;;;;;6.25;5.35;;;;;;;25.32;69.88;100620.75;5217516;56;1139010;-71
2022/07/23 07:43:59;;;;;;;4.70;4.28;;;;;;;25.51;68.57;100613.05;5214422;56;1139025;-71
2022/07/23 07:49:04;;;;;;;7.05;5.03;;;;;;;25.62;66.77;100629.73;5216970;56;1139007;-70
2022/07/23 07:54:11;;;;;;;4.80;4.50;;;;;;;25.61;66.59;100623.45;5218837;56;1139095;-70
2022/07/23 07:59:17;;;;;;;6.50;4.20;;;;;;;25.57;64.89;100620.86;5218777;56;1139413;-70
2022/07/23 08:04:23;;;;;;;5.55;4.97;;;;;;;25.56;64.60;100628.15;5199327;56;1139004;-71
2022/07/23 08:09:29;;;;;;;5.72;3.72;;;;;;;25.50;64.37;100624.13;5142146;56;1139036;-71
2022/07/23 08:14:35;;;;;;;8.55;4.37;;;;;;;25.53;64.78;100628.58;5142066;56;1138939;-68
2022/07/23 08:19:41;;;;;;;4.42;4.12;;;;;;;25.50;64.16;100635.80;5142009;56;1139047;-67
2022/07/23 08:24:47;;;;;;;4.08;3.77;;;;;;;25.43;63.75;100645.80;5142072;56;1139071;-71
2022/07/23 08:29:52;;;;;;;14.13;6.20;;;;;;;25.28;63.82;100654.70;5142166;56;1139516;-70
2022/07/23 08:34:58;;;;;;;6.15;4.05;;;;;;;25.18;64.46;100679.51;5142097;57;1141107;-70
2022/07/23 08:40:05;;;;;;;6.25;4.95;;;;;;;24.96;65.08;100725.93;5137134;57;1139078;-69
2022/07/23 08:45:11;;;;;;;9.03;4.37;;;;;;;24.62;66.13;100758.00;5128593;56;1136939;-69
2022/07/23 08:50:17;;;;;;;12.40;8.05;;;;;;;24.08;71.25;100731.82;5136732;57;1136964;-68
2022/07/23 08:55:24;;;;;;;7.92;7.05;;;;;;;23.57;72.96;100733.53;5138244;57;1139134;-70
2022/07/23 09:00:31;;;;;;;10.00;5.75;;;;;;;23.38;75.42;100709.38;5080554;57;1137018;-68
2022/07/23 09:05:37;;;;;;;10.25;5.80;;;;;;;23.26;78.10;100704.73;5091291;56;1139016;-71
2022/07/23 09:11:00;;;;;;;7.90;7.22;;;;;;;23.14;78.93;100695.84;5119045;56;1139174;-70
2022/07/23 09:16:11;;;;;;;5.92;5.30;;;;;;;23.00;81.18;100727.80;5093898;56;1136937;-69
2022/07/23 09:21:32;;;;;;;11.55;7.90;;;;;;;22.56;85.23;100761.67;5139287;56;1137057;-69
2022/07/23 09:26:46;;;;;;;10.25;7.03;;;;;;;22.36;84.58;100711.59;5153702;57;1138953;-68
2022/07/23 09:31:58;;;;;;;9.80;8.63;;;;;;;22.21;85.57;100748.52;5153257;57;1136902;-68
2022/07/23 09:37:18;;;;;;;8.90;6.75;;;;;;;21.98;86.24;100732.47;5154055;57;1139022;-69
2022/07/23 09:42:27;;;;;;;9.13;6.37;;;;;;;22.11;88.24;100722.40;5238793;56;1138948;-68
2022/07/23 09:47:34;;;;;;;7.95;6.05;;;;;;;22.05;89.33;100743.34;5214120;56;1139020;-70
2022/07/23 09:52:49;;;;;;;8.08;4.97;;;;;;;21.99;90.61;100746.77;5152091;57;1138995;-69
2022/07/23 09:57:55;;;;;;;8.43;6.90;;;;;;;21.76;94.24;100750.39;4990693;58;1139027;-69
2022/07/23 10:03:03;;;;;;;8.68;6.62;;;;;;;21.64;93.04;100744.32;5150763;57;1138983;-68
2022/07/23 10:08:14;;;;;;;7.17;5.10;;;;;;;21.76;94.39;100728.85;5190803;56;1139042;-71
2022/07/23 10:14:15;;;;;;;9.43;7.20;;;;;;;21.82;94.73;100740.75;5209876;56;1138883;-70
2022/07/23 10:18:38;;;;;;;7.70;6.47;;;;;;;21.72;95.33;100739.66;5176048;56;1139350;-68
2022/07/23 10:24:15;;;;;;;8.63;7.75;;;;;;;21.73;96.68;100729.73;5209868;56;1139609;-70
2022/07/23 10:29:48;;;;;;;10.10;8.08;;;;;;;21.79;96.67;100721.43;5209940;56;1139259;-70
2022/07/23 10:35:13;;;;;;;10.72;7.20;;;;;;;21.78;96.79;100717.06;5209979;56;1141333;-71
2022/07/23 10:40:23;;;;;;;8.55;6.78;;;;;;;21.88;96.99;100725.17;5201240;56;1141086;-70
2022/07/23 10:45:33;;;;;;;15.60;7.60;;;;;;;21.89;96.12;100728.19;5160828;57;1139178;-68
2022/07/23 10:50:39;;;;;;;12.58;8.10;;;;;;;21.93;95.35;100720.58;5141927;57;1139356;-70
2022/07/23 10:55:49;;;;;;;9.93;8.90;;;;;;;21.90;95.23;100716.39;5142043;56;1139206;-70
2022/07/23 11:00:55;;;;;;;9.30;8.20;;;;;;;22.02;95.61;100721.66;5151237;56;1136953;-70
2022/07/23 11:06:01;;;;;;;9.60;7.87;;;;;;;22.20;96.13;100723.94;5154404;56;1137050;-69
2022/07/23 11:11:10;;;;;;;8.43;7.20;;;;;;;22.36;96.43;100706.70;5154376;57;1137053;-69
2022/07/23 11:16:22;;;;;;;7.95;7.22;;;;;;;22.46;95.96;100695.09;5088030;56;1137279;-69
2022/07/23 11:21:32;;;;;;;8.03;7.33;;;;;;;22.51;95.72;100693.17;5140369;56;1137083;-68
2022/07/23 11:26:54;;;;;;;9.45;7.80;;;;;;;22.62;95.33;100698.88;5154315;57;1137365;-68
2022/07/23 11:32:06;;;;;;;10.00;8.10;;;;;;;22.74;94.53;100689.27;5154855;57;1137427;-70
2022/07/23 11:37:31;;;;;;;9.80;7.37;;;;;;;22.75;94.40;100686.90;5148085;56;1137520;-68
2022/07/23 11:42:39;;;;;;;6.77;6.10;;;;;;;22.76;93.86;100693.96;5059006;58;1139078;-68
2022/07/23 11:47:45;;;;;;;6.80;5.47;;;;;;;22.80;94.31;100704.69;5102700;57;1139083;-68
2022/07/23 11:52:51;;;;;;;6.87;6.20;;;;;;;22.88;94.10;100698.85;5119712;57;1139002;-67
2022/07/23 11:57:58;;;;;;;7.80;6.30;;;;;;;22.92;94.10;100704.99;5154130;57;1139122;-69
2022/07/23 12:03:05;;;;;;;6.08;5.20;;;;;;;22.84;93.03;100693.00;5153978;57;1139050;-68
2022/07/23 12:08:12;;;;;;;6.55;6.05;;;;;;;22.85;93.14;100692.49;5149439;57;1139190;-70
2022/07/23 12:13:23;;;;;;;8.80;6.15;;;;;;;22.84;93.55;100695.70;5140713;57;1139016;-69
2022/07/23 12:18:29;;;;;;;5.87;5.40;;;;;;;22.90;93.17;100696.28;5140741;57;1139009;-68
2022/07/23 12:23:37;;;;;;;5.83;5.30;;;;;;;22.88;92.48;100688.91;5123433;57;1139012;-67
2022/07/23 12:28:45;;;;;;;7.92;5.80;;;;;;;22.84;92.67;100690.82;5133204;57;1139064;-69
2022/07/23 12:33:51;;;;;;;7.03;6.33;;;;;;;22.85;92.89;100693.33;5128937;57;1139098;-70
2022/07/23 12:38:57;;;;;;;12.60;6.95;;;;;;;22.90;93.60;100684.66;5128905;57;1139243;-67
2022/07/23 12:44:07;;;;;;;5.62;5.20;;;;;;;23.03;93.39;100682.90;5118680;57;1141147;-69
2022/07/23 12:49:18;;;;;;;6.65;6.00;;;;;;;23.08;93.31;100683.64;5089013;57;1139073;-69
2022/07/23 12:54:28;;;;;;;6.30;5.80;;;;;;;22.86;93.28;100666.68;5133629;56;1137675;-68
2022/07/23 12:59:34;;;;;;;5.33;4.83;;;;;;;22.77;94.73;100664.62;5188026;56;1138958;-68
2022/07/23 13:04:40;;;;;;;7.80;5.92;;;;;;;22.81;97.27;100658.33;5177773;56;1139078;-68
2022/07/23 13:09:46;;;;;;;4.65;4.22;;;;;;;22.99;97.23;100661.90;5194701;56;1139067;-68
2022/07/23 13:14:51;;;;;;;6.40;5.80;;;;;;;23.09;95.71;100675.86;5202545;56;1139061;-70
2022/07/23 13:19:57;;;;;;;7.78;5.55;;;;;;;23.08;95.37;100687.17;5202076;56;1139255;-70
2022/07/23 13:25:02;;;;;;;7.35;6.10;;;;;;;23.27;96.13;100680.77;5190993;56;1139049;-70
2022/07/23 13:30:10;;;;;;;7.15;5.58;;;;;;;23.42;95.14;100685.02;5187867;56;1139029;-70
2022/07/23 13:35:16;;;;;;;6.30;5.65;;;;;;;23.56;93.15;100685.13;5235419;56;1139257;-70
2022/07/23 13:40:23;;;;;;;4.22;3.80;;;;;;;23.63;93.08;100683.30;5200248;56;1139097;-70
2022/07/23 13:45:29;;;;;;;7.62;5.03;;;;;;;23.70;89.08;100685.50;5169698;56;1139127;-68
2022/07/23 13:50:35;;;;;;;9.85;4.60;;;;;;;23.62;87.79;100690.57;5242410;56;1139073;-70
2022/07/23 13:55:43;;;;;;;5.22;4.40;;;;;;;23.61;87.09;100693.47;5247952;56;1139101;-69
2022/07/23 14:00:53;;;;;;;9.28;5.53;;;;;;;23.65;86.97;100697.45;5238096;56;1138981;-68
2022/07/23 14:05:59;;;;;;;4.90;4.50;;;;;;;23.80;86.73;100692.74;5112927;56;1139181;-68
2022/07/23 14:11:04;;;;;;;19.07;14.75;;;;;;;23.80;84.41;100698.98;5078735;58;1138985;-70
2022/07/23 14:16:10;;;;;;;16.87;14.03;;;;;;;23.69;83.99;100695.47;5146168;57;1143209;-68
2022/07/23 14:21:16;;;;;;;13.58;7.50;;;;;;;23.57;83.51;100690.33;5155633;57;1143266;-70
2022/07/23 14:26:22;;;;;;;9.60;8.30;;;;;;;23.45;82.83;100691.89;5025196;58;1139331;-69
2022/07/23 14:31:27;;;;;;;9.95;7.58;;;;;;;23.34;83.92;100686.54;5078261;57;1136904;-69
2022/07/23 14:36:33;;;;;;;11.00;9.90;;;;;;;23.39;84.09;100684.06;5078305;57;1137150;-70
2022/07/23 14:41:40;;;;;;;8.83;7.33;;;;;;;23.39;84.02;100684.06;5141748;56;1139472;-71
2022/07/23 14:46:45;;;;;;;6.58;5.97;;;;;;;23.46;84.72;100682.77;5142927;57;1137178;-67
2022/07/23 14:51:52;;;;;;;8.18;6.20;;;;;;;23.37;83.96;100690.20;5142945;57;1136972;-71
2022/07/23 14:57:00;;;;;;;9.38;6.22;;;;;;;23.26;84.43;100688.03;5180084;56;1136927;-68
2022/07/23 15:02:06;;;;;;;8.20;6.70;;;;;;;23.17;85.09;100692.44;5153504;56;1136948;-67
2022/07/23 15:07:12;;;;;;;13.40;11.48;;;;;;;23.13;85.92;100698.73;5133339;56;1136970;-71
2022/07/23 15:12:17;;;;;;;10.88;8.13;;;;;;;23.14;87.39;100678.30;5134629;56;1141118;-69
2022/07/23 15:17:23;;;;;;;9.70;8.48;;;;;;;23.24;87.31;100685.20;5134916;57;1139071;-70
2022/07/23 15:22:28;;;;;;;13.80;9.48;;;;;;;23.20;87.46;100682.09;5160155;57;1137021;-68
2022/07/23 15:27:34;;;;;;;7.22;6.58;;;;;;;23.25;87.31;100682.31;5159338;57;1138983;-69
2022/07/23 15:32:40;;;;;;;7.75;7.15;;;;;;;23.37;87.19;100677.22;5139687;57;1136900;-69
2022/07/23 15:37:46;;;;;;;9.20;6.30;;;;;;;23.34;86.29;100675.74;5124241;57;1137038;-70
2022/07/23 15:42:52;;;;;;;6.80;6.25;;;;;;;23.30;85.76;100673.11;5154426;57;1137407;-68
2022/07/23 15:47:59;;;;;;;12.20;8.75;;;;;;;23.30;85.34;100683.91;5150713;57;1137019;-69
2022/07/23 15:53:05;;;;;;;6.22;5.72;;;;;;;23.21;85.44;100684.27;5148061;57;1137030;-69
2022/07/23 15:58:11;;;;;;;9.75;7.90;;;;;;;23.21;85.59;100687.81;5156029;57;1134948;-70
2022/07/23 16:03:17;;;;;;;19.95;11.25;;;;;;;23.07;84.93;100687.36;5178626;57;22424;-70
2022/07/23 16:08:23;;;;;;;9.55;8.65;;;;;;;22.98;85.36;100688.55;5074510;58;1139149;-69
2022/07/23 16:13:29;;;;;;;8.77;7.40;;;;;;;22.92;85.45;100681.23;5146921;56;1139033;-68
2022/07/23 16:18:35;;;;;;;12.40;8.83;;;;;;;22.92;86.53;100697.41;5142134;57;1139018;-69
2022/07/23 16:23:40;;;;;;;6.10;5.53;;;;;;;22.83;86.37;100697.24;5149008;57;1141085;-69
2022/07/23 16:28:47;;;;;;;7.05;5.70;;;;;;;22.73;86.70;100706.99;5151629;56;1138972;-69
2022/07/23 16:33:52;;;;;;;6.05;5.53;;;;;;;22.72;87.16;100699.92;5177662;56;1138987;-70
2022/07/23 16:38:59;;;;;;;6.65;5.20;;;;;;;22.71;86.76;100692.34;5109328;56;1139079;-70
2022/07/23 16:44:05;;;;;;;6.47;5.87;;;;;;;22.73;86.54;100685.42;5133464;57;1139296;-70
2022/07/23 16:49:11;;;;;;;5.47;4.80;;;;;;;22.71;86.80;100695.05;5101984;56;1139002;-69
2022/07/23 16:54:17;;;;;;;6.00;5.42;;;;;;;22.62;86.13;100690.80;5092608;56;1139063;-70
2022/07/23 16:59:24;;;;;;;5.53;5.00;;;;;;;22.58;86.23;100681.45;5106771;56;1139005;-70
2022/07/23 17:04:29;;;;;;;9.55;5.83;;;;;;;22.67;86.55;100684.83;5142313;56;1139096;-68
2022/07/23 17:09:35;;;;;;;5.10;4.70;;;;;;;22.62;86.94;100697.53;5190744;56;1139123;-69
2022/07/23 17:14:41;;;;;;;4.62;4.22;;;;;;;22.53;86.14;100693.83;5224831;56;1139077;-70
2022/07/23 17:19:47;;;;;;;9.90;5.30;;;;;;;22.47;85.87;100696.77;5188380;56;1139029;-71
2022/07/23 17:24:53;;;;;;;6.47;4.40;;;;;;;22.37;85.83;100694.39;5197818;56;1139134;-69
2022/07/23 17:29:59;;;;;;;4.75;4.40;;;;;;;22.35;85.72;100697.79;5194942;56;1139063;-68
2022/07/23 17:35:06;;;;;;;5.30;4.47;;;;;;;22.34;86.23;100701.51;5204458;56;1139048;-70
2022/07/23 17:40:12;;;;;;;5.92;5.10;;;;;;;22.33;86.56;100703.05;5203048;56;1138918;-69
2022/07/23 17:45:18;;;;;;;10.53;6.80;;;;;;;22.25;83.96;100705.36;5166048;56;1139106;-71
2022/07/23 17:50:24;;;;;;;7.95;4.80;;;;;;;22.16;83.37;100709.69;5198908;56;1141017;-69
2022/07/23 17:55:30;;;;;;;8.48;6.03;;;;;;;21.99;81.66;100713.97;5203579;56;1138944;-70
2022/07/23 18:00:38;;;;;;;11.60;5.17;;;;;;;21.95;81.96;100708.59;5191835;56;1139061;-71
2022/07/23 18:05:44;;;;;;;5.12;4.00;;;;;;;21.91;80.92;100707.81;5205450;56;1141133;-70
2022/07/23 18:10:50;;;;;;;5.35;4.40;;;;;;;21.92;80.37;100713.52;5225686;56;1139002;-69
2022/07/23 18:15:59;;;;;;;8.53;5.50;;;;;;;21.87;78.16;100715.93;5238874;56;1139096;-71
2022/07/23 18:21:04;;;;;;;5.58;3.98;;;;;;;21.84;79.05;100719.02;5230768;56;1139361;-72
2022/07/23 18:26:10;;;;;;;3.80;3.50;;;;;;;21.81;78.71;100724.27;5147380;56;1139004;-71
2022/07/23 18:31:16;;;;;;;4.58;3.58;;;;;;;21.79;77.76;100738.42;5227808;56;1139085;-69
2022/07/23 18:36:22;;;;;;;5.62;4.08;;;;;;;21.77;77.94;100741.81;5239335;56;1139340;-69
2022/07/23 18:41:29;;;;;;;5.65;3.77;;;;;;;21.73;77.89;100747.23;5171878;56;1139031;-72
2022/07/23 18:46:34;;;;;;;3.97;3.47;;;;;;;21.75;78.10;100745.19;5205428;56;1138929;-68
2022/07/23 18:51:40;;;;;;;8.85;3.30;;;;;;;21.72;77.33;100756.33;5236479;56;1138943;-68
2022/07/23 18:56:46;;;;;;;6.17;3.12;;;;;;;21.63;76.47;100760.98;5239819;56;1139115;-68
2022/07/23 19:01:52;;;;;;;8.10;3.47;;;;;;;21.56;76.75;100764.58;5238519;56;1139141;-71
2022/07/23 19:06:58;;;;;;;7.35;3.45;;;;;;;21.44;76.33;100774.97;5239094;56;1138992;-70
2022/07/23 19:12:04;;;;;;;6.33;3.33;;;;;;;21.33;76.53;100768.18;5239781;56;1139061;-71
2022/07/23 19:17:10;;;;;;;14.20;3.87;;;;;;;21.25;76.70;100777.66;5194388;56;1139166;-70
2022/07/23 19:22:15;;;;;;;5.20;3.70;;;;;;;21.18;76.95;100778.55;5226687;56;1141119;-68
2022/07/23 19:27:23;;;;;;;5.50;3.98;;;;;;;21.09;77.03;100780.45;5226877;56;1136301;-69
2022/07/23 19:32:28;;;;;;;12.35;4.22;;;;;;;21.02;77.27;100782.21;5227210;56;1136966;-70
2022/07/23 19:37:34;;;;;;;5.58;4.00;;;;;;;20.91;77.31;100781.30;5183643;56;1138928;-70
2022/07/23 19:42:41;;;;;;;6.78;4.12;;;;;;;20.77;77.43;100792.32;5197655;56;1136968;-70
2022/07/23 19:47:46;;;;;;;6.28;3.87;;;;;;;20.63;77.60;100788.52;5149135;56;1137075;-72
2022/07/23 19:52:53;;;;;;;6.15;4.42;;;;;;;20.64;78.03;100800.95;5226676;56;1137025;-69
2022/07/23 19:57:59;;;;;;;7.75;3.95;;;;;;;20.61;77.86;100805.36;5226787;56;1136979;-70
2022/07/23 20:03:05;;;;;;;6.25;3.37;;;;;;;20.55;77.83;100808.73;5226436;56;1137061;-69
2022/07/23 20:08:11;;;;;;;5.25;3.10;;;;;;;20.47;77.64;100807.42;5226859;56;1136991;-71
2022/07/23 20:13:17;;;;;;;5.75;3.17;;;;;;;20.38;77.73;100807.65;5222933;56;1137046;-71
2022/07/23 20:18:23;;;;;;;6.47;3.60;;;;;;;20.27;77.96;100815.06;5225352;56;1136962;-70
2022/07/23 20:23:29;;;;;;;8.15;3.77;;;;;;;20.18;78.56;100818.78;5220209;56;1136899;-71
2022/07/23 20:28:35;;;;;;;11.12;3.98;;;;;;;20.17;79.05;100822.47;5187122;56;1136972;-70
2022/07/23 20:33:42;;;;;;;5.78;4.15;;;;;;;20.24;79.45;100825.31;5194235;56;1139033;-70
2022/07/23 20:38:47;;;;;;;9.83;3.65;;;;;;;20.25;78.96;100838.57;5188984;56;1136847;-69
2022/07/23 20:43:53;;;;;;;8.85;3.22;;;;;;;20.34;79.33;100844.73;5195592;56;1137002;-69
2022/07/23 20:49:00;;;;;;;7.90;4.70;;;;;;;20.21;78.48;100846.63;5197059;56;1136994;-70
2022/07/23 20:54:06;;;;;;;17.60;6.45;;;;;;;19.98;78.71;100847.06;5197691;56;1134998;-69
2022/07/23 20:59:12;;;;;;;9.95;5.35;;;;;;;19.81;79.39;100843.57;5190255;56;1137095;-70
2022/07/23 21:04:18;;;;;;;9.78;3.95;;;;;;;19.88;79.93;100852.60;5198893;56;1261108;-69
2022/07/23 21:09:24;;;;;;;7.72;4.00;;;;;;;19.95;80.18;100864.34;5012774;58;1139320;-69
2022/07/23 21:14:30;;;;;;;6.87;3.90;;;;;;;19.90;79.94;100869.88;5017045;57;1139097;-70
2022/07/23 21:19:36;;;;;;;4.83;4.00;;;;;;;19.91;80.60;100868.38;5122457;57;1139137;-70
2022/07/23 21:24:42;;;;;;;10.08;3.60;;;;;;;19.97;80.50;100876.26;5113698;57;1139047;-69
2022/07/23 21:29:47;;;;;;;12.33;4.87;;;;;;;19.94;80.01;100888.17;5189729;56;1141395;-70
2022/07/23 21:34:54;;;;;;;7.10;4.33;;;;;;;19.89;80.21;100889.68;5198169;56;1141317;-68
2022/07/23 21:40:00;;;;;;;4.58;3.83;;;;;;;19.90;80.33;100894.05;5201289;56;1139012;-71
2022/07/23 21:45:06;;;;;;;7.05;3.77;;;;;;;19.81;79.96;100905.31;5203412;56;1139283;-70
2022/07/23 21:50:12;;;;;;;5.90;3.37;;;;;;;19.73;80.02;100909.33;5203815;56;1139126;-71
2022/07/23 21:55:18;;;;;;;10.48;3.80;;;;;;;19.71;79.88;100922.07;5196556;56;1139039;-71
2022/07/23 22:00:30;;;;;;;6.17;3.65;;;;;;;19.65;79.97;100922.77;5201965;56;1141147;-69
2022/07/23 22:05:36;;;;;;;4.03;3.57;;;;;;;19.56;80.16;100919.22;5200506;56;1139092;-68
2022/07/23 22:10:45;;;;;;;6.00;3.30;;;;;;;19.47;80.04;100918.02;5202642;56;1139143;-69
2022/07/23 22:15:49;;;;;;;8.93;3.98;;;;;;;19.44;80.29;100923.72;5196028;56;1139103;-69
2022/07/23 22:20:54;;;;;;;6.90;4.17;;;;;;;19.48;80.42;100927.75;5192345;56;1138898;-70
2022/07/23 22:26:00;;;;;;;8.23;4.10;;;;;;;19.51;80.38;100927.45;5153555;56;1139066;-69
2022/07/23 22:31:07;;;;;;;5.22;4.40;;;;;;;19.54;80.46;100924.44;5199173;56;1139004;-71
2022/07/23 22:36:13;;;;;;;5.10;4.10;;;;;;;19.50;80.40;100925.27;5250507;56;1139186;-70
2022/07/23 22:41:18;;;;;;;6.83;4.10;;;;;;;19.51;80.56;100922.09;5217648;56;1139023;-70
2022/07/23 22:46:27;;;;;;;9.73;4.62;;;;;;;19.57;80.71;100926.27;5174494;56;1139042;-71
2022/07/23 22:51:32;;;;;;;7.90;4.58;;;;;;;19.55;80.53;100932.83;5181463;56;1138922;-68
2022/07/23 22:56:38;;;;;;;6.58;4.80;;;;;;;19.54;80.47;100929.81;5230687;56;1139328;-69
2022/07/23 23:01:44;;;;;;;8.53;4.45;;;;;;;19.34;79.88;100927.91;5192651;56;1139431;-70
2022/07/23 23:06:49;;;;;;;9.48;4.05;;;;;;;19.11;79.90;100925.00;5163317;57;1139071;-70